Time;durP1;ratioP1;P1;durP2;ratioP2;P2;SDS_P1;SDS_P2;PMS_P1;PMS_P2;Temp;Humidity;BMP_temperature;BMP_pressure;BME280_temperature;BME280_humidity;BME280_pressure;Samples;Min_cycle;Max_cycle;Signal;HPM_P1;HPM_P2
2022/01/15 00:00:24;;;;;;;15.50;6.13;;;;;;;;;;6131548;28;20235;-64
2022/01/15 00:03:44;;;;;;;21.67;6.90;;;;;;;;;;6125914;28;20223;-65
2022/01/15 00:07:05;;;;;;;17.77;7.57;;;;;;;;;;6127822;28;20610;-66
2022/01/15 00:10:27;;;;;;;18.93;7.03;;;;;;;;;;6133885;28;20257;-65
2022/01/15 00:13:54;;;;;;;19.47;7.33;;;;;;;;;;6134348;28;20231;-64
2022/01/15 00:17:20;;;;;;;24.07;7.97;;;;;;;;;;6132784;28;20227;-66
2022/01/15 00:20:41;;;;;;;15.57;6.10;;;;;;;;;;6131726;28;20866;-65
2022/01/15 00:24:02;;;;;;;20.73;6.33;;;;;;;;;;6138180;28;20239;-65
2022/01/15 00:27:23;;;;;;;26.97;7.30;;;;;;;;;;6127578;28;20600;-67
2022/01/15 00:30:43;;;;;;;31.03;8.50;;;;;;;;;;6137976;28;20228;-66
2022/01/15 00:34:05;;;;;;;18.10;5.80;;;;;;;;;;6120541;28;20512;-65
2022/01/15 00:37:25;;;;;;;21.70;8.03;;;;;;;;;;6116556;28;20231;-64
2022/01/15 00:40:46;;;;;;;18.37;6.17;;;;;;;;;;6135569;28;21025;-66
2022/01/15 00:44:06;;;;;;;20.40;8.53;;;;;;;;;;6135720;28;20621;-65
2022/01/15 00:47:31;;;;;;;23.67;8.73;;;;;;;;;;6137359;28;20279;-66
2022/01/15 00:50:52;;;;;;;21.93;6.23;;;;;;;;;;6137093;28;20501;-65
2022/01/15 00:54:13;;;;;;;16.13;6.83;;;;;;;;;;6133124;28;20231;-65
2022/01/15 00:57:34;;;;;;;20.33;5.50;;;;;;;;;;6133586;28;20230;-64
2022/01/15 01:00:54;;;;;;;17.87;6.30;;;;;;;;;;6122040;28;20587;-65
2022/01/15 01:04:15;;;;;;;27.90;8.00;;;;;;;;;;6124921;28;20225;-64
2022/01/15 01:07:37;;;;;;;17.80;6.67;;;;;;;;;;6104563;28;20228;-64
2022/01/15 01:10:59;;;;;;;19.17;6.10;;;;;;;;;;6133115;28;20259;-64
2022/01/15 01:22:16;;;;;;;19.13;7.03;;;;;;;;;;6128619;28;20222;-65
2022/01/15 01:25:32;;;;;;;20.40;6.30;;;;;;;;;;6133947;28;20621;-64
2022/01/15 01:29:00;;;;;;;19.63;5.57;;;;;;;;;;6138240;28;20334;-65
2022/01/15 01:32:44;;;;;;;25.37;7.07;;;;;;;;;;6137470;28;20242;-66
2022/01/15 01:36:15;;;;;;;16.30;5.83;;;;;;;;;;6133672;28;20678;-66
2022/01/15 01:39:43;;;;;;;16.23;6.17;;;;;;;;;;6131195;28;20322;-65
2022/01/15 01:43:15;;;;;;;16.87;6.83;;;;;;;;;;6133073;28;20239;-65
2022/01/15 01:46:42;;;;;;;21.43;6.00;;;;;;;;;;6122289;28;20654;-66
2022/01/15 01:50:03;;;;;;;16.43;5.43;;;;;;;;;;6117679;28;21276;-65
2022/01/15 01:53:23;;;;;;;14.10;5.33;;;;;;;;;;6136891;28;20230;-65
2022/01/15 01:56:44;;;;;;;18.37;7.40;;;;;;;;;;6125897;28;20610;-65
2022/01/15 02:00:07;;;;;;;23.37;6.47;;;;;;;;;;6131086;28;20531;-65
2022/01/15 02:03:37;;;;;;;24.73;7.43;;;;;;;;;;6128775;28;20227;-66
2022/01/15 02:06:57;;;;;;;19.43;5.77;;;;;;;;;;6133554;28;20601;-65
2022/01/15 02:10:19;;;;;;;17.87;5.93;;;;;;;;;;6128491;28;20342;-65
2022/01/15 02:13:47;;;;;;;20.53;5.93;;;;;;;;;;6121029;28;20255;-66
2022/01/15 02:17:11;;;;;;;15.03;5.07;;;;;;;;;;6121808;28;20231;-65
2022/01/15 02:21:00;;;;;;;13.17;4.57;;;;;;;;;;6129206;28;20239;-65
2022/01/15 02:24:16;;;;;;;19.23;6.33;;;;;;;;;;6142620;28;20228;-65
2022/01/15 02:27:37;;;;;;;20.10;5.67;;;;;;;;;;6132520;28;20235;-65
2022/01/15 02:35:20;;;;;;;14.57;3.97;;;;;;;;;;6126882;28;20256;-65
2022/01/15 02:38:43;;;;;;;16.93;5.73;;;;;;;;;;6136247;28;20231;-66
2022/01/15 02:42:04;;;;;;;22.17;6.27;;;;;;;;;;6129431;28;20243;-66
2022/01/15 02:45:26;;;;;;;21.00;6.50;;;;;;;;;;6127218;28;20306;-64
2022/01/15 02:48:47;;;;;;;17.20;4.73;;;;;;;;;;6126052;28;20232;-65
2022/01/15 02:52:08;;;;;;;12.40;4.23;;;;;;;;;;6135437;28;20286;-65
2022/01/15 02:55:29;;;;;;;23.13;7.63;;;;;;;;;;6136133;28;20258;-64
2022/01/15 02:58:50;;;;;;;23.60;7.37;;;;;;;;;;6133207;28;20228;-65
2022/01/15 03:02:10;;;;;;;15.57;4.37;;;;;;;;;;6139606;28;20230;-65
2022/01/15 03:05:31;;;;;;;26.97;8.63;;;;;;;;;;6134236;28;20226;-65
2022/01/15 03:08:53;;;;;;;22.33;6.90;;;;;;;;;;6130943;28;20232;-65
2022/01/15 03:12:15;;;;;;;15.57;5.20;;;;;;;;;;6138053;28;20330;-65
2022/01/15 03:15:35;;;;;;;17.90;6.23;;;;;;;;;;6133458;28;20652;-65
2022/01/15 03:18:56;;;;;;;21.33;6.13;;;;;;;;;;6139569;28;20514;-66
2022/01/15 03:22:16;;;;;;;16.23;6.27;;;;;;;;;;6136109;28;20230;-65
2022/01/15 03:25:37;;;;;;;19.23;7.87;;;;;;;;;;6130521;28;20267;-65
2022/01/15 03:28:59;;;;;;;19.20;5.37;;;;;;;;;;6116599;28;22869;-66
2022/01/15 03:32:20;;;;;;;13.17;5.43;;;;;;;;;;6136428;28;20242;-64
2022/01/15 03:35:40;;;;;;;22.50;6.63;;;;;;;;;;6133852;28;20624;-65
2022/01/15 03:39:01;;;;;;;24.43;6.17;;;;;;;;;;6137714;28;20226;-64
2022/01/15 03:42:22;;;;;;;18.37;5.63;;;;;;;;;;6133985;28;20223;-65
2022/01/15 03:45:44;;;;;;;18.73;6.90;;;;;;;;;;6133481;28;20656;-65
2022/01/15 03:49:04;;;;;;;19.23;6.00;;;;;;;;;;6123071;28;20232;-65
2022/01/15 03:52:24;;;;;;;11.07;4.30;;;;;;;;;;6134507;28;20701;-64
2022/01/15 03:55:45;;;;;;;16.43;5.87;;;;;;;;;;6135194;28;20236;-63
2022/01/15 03:59:05;;;;;;;21.47;6.40;;;;;;;;;;6129956;28;20674;-63
2022/01/15 04:02:27;;;;;;;16.03;5.67;;;;;;;;;;6138846;28;20760;-65
2022/01/15 04:05:48;;;;;;;20.10;7.47;;;;;;;;;;6139304;28;20235;-64
2022/01/15 04:09:08;;;;;;;17.50;6.17;;;;;;;;;;6138258;28;20236;-64
2022/01/15 04:12:28;;;;;;;16.97;6.20;;;;;;;;;;6129843;28;20242;-65
2022/01/15 04:15:52;;;;;;;22.93;7.83;;;;;;;;;;6138082;28;20230;-65
2022/01/15 04:19:14;;;;;;;19.70;5.70;;;;;;;;;;6136663;28;20614;-65
2022/01/15 04:22:34;;;;;;;15.40;4.73;;;;;;;;;;6143101;28;20231;-66
2022/01/15 04:25:55;;;;;;;17.07;4.43;;;;;;;;;;6138898;28;20238;-64
2022/01/15 04:29:15;;;;;;;20.93;7.20;;;;;;;;;;6133019;28;20231;-65
2022/01/15 04:32:36;;;;;;;23.93;7.00;;;;;;;;;;6133307;28;20712;-64
2022/01/15 04:35:58;;;;;;;14.30;6.00;;;;;;;;;;6138350;28;20239;-65
2022/01/15 04:39:19;;;;;;;19.37;6.47;;;;;;;;;;6140213;28;20230;-64
2022/01/15 04:42:39;;;;;;;26.27;9.10;;;;;;;;;;6141248;28;20321;-64
2022/01/15 04:46:00;;;;;;;16.17;5.63;;;;;;;;;;6133577;28;20605;-65
2022/01/15 04:49:20;;;;;;;23.00;6.23;;;;;;;;;;6134060;28;20227;-66
2022/01/15 04:52:43;;;;;;;19.47;6.83;;;;;;;;;;6134435;28;20773;-65
2022/01/15 04:56:04;;;;;;;14.50;7.00;;;;;;;;;;6138902;28;20239;-64
2022/01/15 04:59:24;;;;;;;17.87;7.37;;;;;;;;;;6143928;28;20591;-65
2022/01/15 05:02:45;;;;;;;17.30;6.17;;;;;;;;;;6138386;28;20239;-64
2022/01/15 05:06:05;;;;;;;20.53;7.07;;;;;;;;;;6136446;28;20227;-64
2022/01/15 05:09:27;;;;;;;15.93;6.70;;;;;;;;;;6139050;28;20236;-65
2022/01/15 05:12:49;;;;;;;20.60;6.63;;;;;;;;;;6136960;28;20235;-65
2022/01/15 05:16:09;;;;;;;16.23;5.87;;;;;;;;;;6138247;28;20484;-65
2022/01/15 05:19:30;;;;;;;18.43;6.00;;;;;;;;;;6131033;28;20251;-64
2022/01/15 05:22:50;;;;;;;17.70;5.20;;;;;;;;;;6118958;28;20318;-65
2022/01/15 05:26:12;;;;;;;16.20;6.23;;;;;;;;;;6125922;28;20616;-65
2022/01/15 05:29:32;;;;;;;19.60;6.10;;;;;;;;;;6133791;28;20224;-65
2022/01/15 05:32:53;;;;;;;15.00;5.80;;;;;;;;;;6125327;28;20346;-64
2022/01/15 05:36:13;;;;;;;24.23;8.53;;;;;;;;;;6136607;28;20239;-64
2022/01/15 05:39:34;;;;;;;13.87;5.47;;;;;;;;;;6135514;28;20246;-65
2022/01/15 05:42:55;;;;;;;14.30;6.90;;;;;;;;;;6141136;28;20236;-65
2022/01/15 05:46:16;;;;;;;15.63;5.33;;;;;;;;;;6135475;28;20235;-66
2022/01/15 05:49:36;;;;;;;13.93;4.37;;;;;;;;;;6141604;28;20228;-65
2022/01/15 05:52:58;;;;;;;13.97;6.17;;;;;;;;;;6142177;28;20223;-65
2022/01/15 05:56:19;;;;;;;26.83;8.53;;;;;;;;;;6134730;28;20235;-65
2022/01/15 05:59:41;;;;;;;18.03;6.23;;;;;;;;;;6140669;28;20239;-65
2022/01/15 06:03:01;;;;;;;15.53;5.03;;;;;;;;;;6131765;28;20231;-64
2022/01/15 06:06:22;;;;;;;24.40;6.63;;;;;;;;;;6136712;28;20520;-65
2022/01/15 06:09:42;;;;;;;10.13;4.50;;;;;;;;;;6128799;28;20236;-64
2022/01/15 06:13:03;;;;;;;10.20;5.27;;;;;;;;;;6127272;28;20286;-66
2022/01/15 06:16:25;;;;;;;16.63;5.43;;;;;;;;;;6135606;28;20745;-65
2022/01/15 06:19:45;;;;;;;17.40;5.77;;;;;;;;;;6137355;28;20235;-65
2022/01/15 06:23:06;;;;;;;15.27;6.00;;;;;;;;;;6146780;28;20234;-65
2022/01/15 06:26:26;;;;;;;10.90;5.07;;;;;;;;;;6126700;28;20230;-64
2022/01/15 06:29:47;;;;;;;21.17;6.93;;;;;;;;;;6134757;28;20238;-64
2022/01/15 06:33:08;;;;;;;16.60;8.17;;;;;;;;;;6134716;28;20236;-64
2022/01/15 06:36:29;;;;;;;11.63;6.13;;;;;;;;;;6129510;28;20231;-64
2022/01/15 06:39:50;;;;;;;12.27;5.90;;;;;;;;;;6135222;28;20516;-64
2022/01/15 06:43:10;;;;;;;12.70;4.97;;;;;;;;;;6133844;28;20864;-64
2022/01/15 06:46:31;;;;;;;12.30;6.17;;;;;;;;;;6133993;28;20258;-63
2022/01/15 06:49:53;;;;;;;12.57;6.40;;;;;;;;;;6132882;28;20232;-64
2022/01/15 06:53:14;;;;;;;13.07;7.33;;;;;;;;;;6130901;28;20547;-64
2022/01/15 06:56:35;;;;;;;14.20;6.93;;;;;;;;;;6131246;28;20255;-63
2022/01/15 06:59:55;;;;;;;13.73;7.10;;;;;;;;;;6141972;28;20243;-64
2022/01/15 07:03:16;;;;;;;12.13;6.97;;;;;;;;;;6140427;28;20223;-65
2022/01/15 07:06:38;;;;;;;13.07;8.37;;;;;;;;;;6125754;28;20235;-66
2022/01/15 07:09:59;;;;;;;13.13;8.57;;;;;;;;;;6133859;28;20258;-65
2022/01/15 07:13:20;;;;;;;12.60;7.67;;;;;;;;;;6134694;28;20572;-65
2022/01/15 07:16:41;;;;;;;12.30;9.07;;;;;;;;;;6134212;28;20327;-64
2022/01/15 07:20:01;;;;;;;11.33;8.23;;;;;;;;;;6135928;28;20247;-65
2022/01/15 07:23:23;;;;;;;14.40;9.93;;;;;;;;;;6141334;28;20600;-64
2022/01/15 07:26:43;;;;;;;12.50;7.77;;;;;;;;;;6126876;28;20314;-65
2022/01/15 07:30:04;;;;;;;12.07;8.17;;;;;;;;;;6128847;28;20525;-65
2022/01/15 07:33:25;;;;;;;14.17;8.33;;;;;;;;;;6131070;28;20226;-66
2022/01/15 07:36:47;;;;;;;15.17;10.90;;;;;;;;;;6130639;28;20231;-65
2022/01/15 07:40:09;;;;;;;12.37;8.13;;;;;;;;;;6125391;28;20257;-65
2022/01/15 07:43:30;;;;;;;13.20;9.00;;;;;;;;;;6126919;28;20235;-65
2022/01/15 07:46:51;;;;;;;10.50;7.30;;;;;;;;;;6131544;28;20238;-65
2022/01/15 07:50:14;;;;;;;15.50;9.10;;;;;;;;;;6120050;28;20240;-65
2022/01/15 07:53:34;;;;;;;13.57;8.30;;;;;;;;;;6123729;28;20785;-65
2022/01/15 07:56:58;;;;;;;10.70;7.27;;;;;;;;;;6129679;28;20601;-65
2022/01/15 08:00:19;;;;;;;13.53;8.83;;;;;;;;;;6130909;28;20236;-66
2022/01/15 08:03:40;;;;;;;15.43;8.13;;;;;;;;;;6136748;28;20239;-65
2022/01/15 08:07:00;;;;;;;12.13;8.60;;;;;;;;;;6140541;28;20266;-65
2022/01/15 08:10:21;;;;;;;9.13;6.73;;;;;;;;;;6140917;28;20227;-65
2022/01/15 08:13:42;;;;;;;8.70;6.87;;;;;;;;;;6142248;28;20231;-65
2022/01/15 08:17:03;;;;;;;13.37;7.80;;;;;;;;;;6137362;28;20239;-65
2022/01/15 08:20:24;;;;;;;13.13;7.60;;;;;;;;;;6141396;28;20794;-64
2022/01/15 08:23:44;;;;;;;12.70;8.67;;;;;;;;;;6138307;28;20227;-65
2022/01/15 08:27:05;;;;;;;13.17;7.80;;;;;;;;;;6123751;28;20235;-64
2022/01/15 08:30:27;;;;;;;12.67;7.10;;;;;;;;;;6140262;28;20243;-65
2022/01/15 08:33:47;;;;;;;10.83;6.40;;;;;;;;;;6132983;28;20325;-65
2022/01/15 08:37:08;;;;;;;9.97;6.17;;;;;;;;;;6133912;28;20235;-65
2022/01/15 08:40:29;;;;;;;23.80;11.33;;;;;;;;;;6141507;28;20239;-65
2022/01/15 08:43:49;;;;;;;13.50;7.40;;;;;;;;;;6127301;28;20235;-65
2022/01/15 08:47:11;;;;;;;9.93;8.10;;;;;;;;;;6125089;28;20232;-64
2022/01/15 08:50:32;;;;;;;11.90;6.20;;;;;;;;;;6129356;28;20239;-64
2022/01/15 08:53:52;;;;;;;11.03;6.03;;;;;;;;;;6122213;28;20240;-65
2022/01/15 08:57:13;;;;;;;11.97;6.70;;;;;;;;;;6129521;28;20719;-65
2022/01/15 09:00:34;;;;;;;13.70;7.00;;;;;;;;;;6127173;28;20239;-66
2022/01/15 09:03:57;;;;;;;13.00;7.17;;;;;;;;;;6133260;28;20243;-65
2022/01/15 09:07:17;;;;;;;11.67;7.07;;;;;;;;;;6133110;28;20231;-65
2022/01/15 09:10:41;;;;;;;10.47;7.13;;;;;;;;;;6135306;28;20318;-64
2022/01/15 09:14:02;;;;;;;10.37;5.57;;;;;;;;;;6128426;28;20232;-66
2022/01/15 09:17:23;;;;;;;13.17;7.77;;;;;;;;;;6110538;28;20246;-65
2022/01/15 09:20:45;;;;;;;11.50;6.37;;;;;;;;;;6117822;28;20259;-64
2022/01/15 09:24:05;;;;;;;8.57;4.73;;;;;;;;;;6119171;28;20235;-66
2022/01/15 09:31:04;;;;;;;9.20;5.57;;;;;;;;;;6106445;28;20228;-65
2022/01/15 09:34:25;;;;;;;13.10;6.53;;;;;;;;;;6112449;28;20235;-64
2022/01/15 09:37:49;;;;;;;11.03;6.33;;;;;;;;;;6121627;28;20240;-64
2022/01/15 09:41:10;;;;;;;12.60;6.07;;;;;;;;;;6118017;28;20235;-64
2022/01/15 09:44:32;;;;;;;12.67;5.27;;;;;;;;;;6123804;28;20238;-65
2022/01/15 09:47:55;;;;;;;11.10;4.93;;;;;;;;;;6134446;28;20231;-66
2022/01/15 09:51:16;;;;;;;9.03;4.97;;;;;;;;;;6137962;28;20231;-65
2022/01/15 09:54:38;;;;;;;10.43;5.40;;;;;;;;;;6126638;28;20790;-65
2022/01/15 09:57:59;;;;;;;12.87;6.00;;;;;;;;;;6124523;28;20232;-65
2022/01/15 10:01:19;;;;;;;9.37;5.63;;;;;;;;;;6136197;28;20252;-65
2022/01/15 10:04:40;;;;;;;17.03;6.50;;;;;;;;;;6130896;28;20716;-66
2022/01/15 10:08:01;;;;;;;10.77;5.10;;;;;;;;;;6133240;28;20535;-65
2022/01/15 10:11:36;;;;;;;9.97;4.93;;;;;;;;;;6132413;28;20522;-64
2022/01/15 10:15:01;;;;;;;12.63;5.27;;;;;;;;;;6129754;28;20231;-64
2022/01/15 10:18:23;;;;;;;10.73;5.10;;;;;;;;;;6138769;28;20310;-64
2022/01/15 10:21:43;;;;;;;9.63;5.67;;;;;;;;;;6122502;28;20771;-64
2022/01/15 10:25:07;;;;;;;11.50;5.97;;;;;;;;;;6108607;28;20339;-65
2022/01/15 10:28:47;;;;;;;14.87;5.70;;;;;;;;;;6105946;28;20231;-65
2022/01/15 10:32:13;;;;;;;14.10;5.20;;;;;;;;;;6122651;28;20337;-65
2022/01/15 10:35:34;;;;;;;11.93;5.33;;;;;;;;;;6126054;28;20236;-64
2022/01/15 10:39:12;;;;;;;13.23;4.73;;;;;;;;;;6134449;28;20235;-66
2022/01/15 10:42:32;;;;;;;13.07;5.57;;;;;;;;;;6130790;28;20238;-66
2022/01/15 10:45:54;;;;;;;19.87;7.37;;;;;;;;;;6126038;28;20243;-64
2022/01/15 10:49:23;;;;;;;15.77;6.03;;;;;;;;;;6130168;28;20323;-64
2022/01/15 10:52:43;;;;;;;11.67;6.37;;;;;;;;;;6130308;28;20496;-63
2022/01/15 10:56:04;;;;;;;11.07;5.80;;;;;;;;;;6123439;28;20590;-64
2022/01/15 10:59:25;;;;;;;13.63;7.57;;;;;;;;;;6123208;28;20657;-65
2022/01/15 11:02:46;;;;;;;11.43;6.50;;;;;;;;;;6092355;28;20514;-65
2022/01/15 11:06:08;;;;;;;10.00;6.60;;;;;;;;;;6110670;28;20244;-65
2022/01/15 11:09:33;;;;;;;17.83;6.70;;;;;;;;;;6105384;28;21536;-66
2022/01/15 11:12:54;;;;;;;12.43;7.33;;;;;;;;;;6067386;28;20236;-64
2022/01/15 11:16:15;;;;;;;12.80;7.40;;;;;;;;;;6061369;28;20325;-64
2022/01/15 11:19:36;;;;;;;15.23;6.87;;;;;;;;;;6095945;28;20360;-65
2022/01/15 11:22:58;;;;;;;14.43;6.37;;;;;;;;;;6095036;28;20342;-64
2022/01/15 11:26:21;;;;;;;12.47;5.40;;;;;;;;;;6093043;28;20242;-66
2022/01/15 11:29:43;;;;;;;16.17;7.37;;;;;;;;;;6088704;28;20231;-65
2022/01/15 11:33:04;;;;;;;16.77;8.67;;;;;;;;;;6113146;28;20802;-66
2022/01/15 11:36:28;;;;;;;24.60;12.13;;;;;;;;;;6101365;28;20230;-65
2022/01/15 11:39:52;;;;;;;16.87;9.00;;;;;;;;;;6120978;28;20239;-66
2022/01/15 11:43:33;;;;;;;18.03;8.50;;;;;;;;;;6120785;28;20254;-68
2022/01/15 11:46:54;;;;;;;14.60;7.10;;;;;;;;;;6103527;28;20243;-65
2022/01/15 11:50:20;;;;;;;14.60;7.07;;;;;;;;;;6120007;28;20298;-65
2022/01/15 11:53:47;;;;;;;12.70;7.00;;;;;;;;;;6121937;28;20238;-65
2022/01/15 11:57:20;;;;;;;26.43;7.60;;;;;;;;;;6118861;28;20236;-65
2022/01/15 12:00:44;;;;;;;14.80;6.40;;;;;;;;;;6124713;28;20728;-66
2022/01/15 12:04:24;;;;;;;9.77;5.87;;;;;;;;;;6129378;28;20262;-64
2022/01/15 12:07:45;;;;;;;15.00;7.03;;;;;;;;;;6131217;28;20602;-65
2022/01/15 12:11:07;;;;;;;13.57;5.30;;;;;;;;;;6133977;28;20255;-67
2022/01/15 12:14:42;;;;;;;12.60;6.57;;;;;;;;;;6131441;28;20254;-67
2022/01/15 12:18:13;;;;;;;10.13;4.50;;;;;;;;;;6135738;28;20325;-67
2022/01/15 12:21:47;;;;;;;15.85;6.55;;;;;;;;;;6132960;28;21091;-65
2022/01/15 12:25:09;;;;;;;15.70;5.87;;;;;;;;;;6116433;28;20235;-67
2022/01/15 12:28:33;;;;;;;13.13;7.30;;;;;;;;;;6133160;28;20227;-65
2022/01/15 12:31:54;;;;;;;14.00;6.00;;;;;;;;;;6127806;28;20235;-64
2022/01/15 12:35:18;;;;;;;17.77;6.47;;;;;;;;;;6119685;28;20258;-65
2022/01/15 12:38:39;;;;;;;14.07;5.97;;;;;;;;;;6137268;28;20668;-65
2022/01/15 12:41:59;;;;;;;16.97;5.23;;;;;;;;;;6128235;28;20357;-65
2022/01/15 12:45:20;;;;;;;12.47;6.33;;;;;;;;;;6123699;28;20602;-63
2022/01/15 12:48:43;;;;;;;12.40;5.77;;;;;;;;;;6137489;28;20231;-64
2022/01/15 12:52:13;;;;;;;15.17;6.70;;;;;;;;;;6137225;28;20515;-65
2022/01/15 12:55:34;;;;;;;14.03;5.57;;;;;;;;;;6129776;28;20699;-64
2022/01/15 12:58:57;;;;;;;10.90;5.80;;;;;;;;;;6118272;28;20235;-65
2022/01/15 13:02:18;;;;;;;18.47;6.07;;;;;;;;;;6125531;28;20626;-65
2022/01/15 13:05:40;;;;;;;15.17;6.10;;;;;;;;;;6124314;28;20235;-65
2022/01/15 13:09:02;;;;;;;17.30;5.67;;;;;;;;;;6109676;28;20235;-65
2022/01/15 13:12:22;;;;;;;12.40;5.00;;;;;;;;;;6109244;28;20235;-64
2022/01/15 13:15:43;;;;;;;15.03;5.63;;;;;;;;;;6095607;28;20232;-63
2022/01/15 13:19:06;;;;;;;14.70;5.30;;;;;;;;;;6111610;28;20256;-65
2022/01/15 13:22:27;;;;;;;12.17;5.17;;;;;;;;;;6110500;28;20326;-64
2022/01/15 13:25:49;;;;;;;11.83;4.37;;;;;;;;;;6127387;28;20676;-64
2022/01/15 13:29:11;;;;;;;15.63;5.73;;;;;;;;;;6126691;28;20231;-64
2022/01/15 13:32:32;;;;;;;18.27;5.00;;;;;;;;;;6124865;28;20239;-64
2022/01/15 13:35:52;;;;;;;15.33;5.20;;;;;;;;;;6124653;28;20239;-64
2022/01/15 13:39:13;;;;;;;20.40;5.43;;;;;;;;;;6116571;28;20243;-64
2022/01/15 13:42:36;;;;;;;10.23;4.67;;;;;;;;;;6122740;28;20570;-64
2022/01/15 13:46:05;;;;;;;11.77;6.00;;;;;;;;;;6109721;28;20240;-64
2022/01/15 13:49:36;;;;;;;10.43;4.30;;;;;;;;;;6114738;28;20231;-64
2022/01/15 13:53:05;;;;;;;19.10;6.57;;;;;;;;;;6128568;28;20234;-65
2022/01/15 13:56:27;;;;;;;17.40;5.87;;;;;;;;;;6128508;28;20251;-64
2022/01/15 13:59:57;;;;;;;13.43;4.40;;;;;;;;;;6133185;28;20629;-65
2022/01/15 14:03:18;;;;;;;11.80;5.60;;;;;;;;;;6132322;28;20238;-64
2022/01/15 14:06:40;;;;;;;11.20;4.30;;;;;;;;;;6128632;28;20232;-65
2022/01/15 14:10:01;;;;;;;19.83;5.23;;;;;;;;;;6129005;28;20754;-64
2022/01/15 14:13:28;;;;;;;16.83;6.67;;;;;;;;;;6134377;28;20231;-64
2022/01/15 14:16:53;;;;;;;18.37;5.07;;;;;;;;;;6139515;28;20234;-64
2022/01/15 14:20:39;;;;;;;12.17;4.57;;;;;;;;;;6134625;28;20706;-64
2022/01/15 14:24:14;;;;;;;15.77;4.37;;;;;;;;;;6120458;28;20241;-65
2022/01/15 14:27:34;;;;;;;11.87;5.00;;;;;;;;;;6128332;28;20235;-65
2022/01/15 14:30:56;;;;;;;14.13;5.53;;;;;;;;;;6135349;28;20235;-64
2022/01/15 14:34:21;;;;;;;12.23;4.37;;;;;;;;;;6131303;28;20227;-64
2022/01/15 14:37:41;;;;;;;17.03;5.53;;;;;;;;;;6130451;28;20243;-64
2022/01/15 14:41:01;;;;;;;14.67;5.23;;;;;;;;;;6134339;28;20235;-65
2022/01/15 14:44:22;;;;;;;11.23;4.43;;;;;;;;;;6137603;28;20235;-66
2022/01/15 14:47:42;;;;;;;13.03;4.40;;;;;;;;;;6137535;28;20224;-64
2022/01/15 14:51:04;;;;;;;17.57;6.87;;;;;;;;;;6138763;28;20231;-65
2022/01/15 14:54:25;;;;;;;16.70;5.80;;;;;;;;;;6137958;28;20215;-65
2022/01/15 14:57:45;;;;;;;13.47;4.70;;;;;;;;;;6143130;28;20517;-65
2022/01/15 15:01:06;;;;;;;9.70;3.77;;;;;;;;;;6134480;28;20364;-64
2022/01/15 15:04:26;;;;;;;13.03;6.63;;;;;;;;;;6133054;28;20227;-65
2022/01/15 15:07:49;;;;;;;19.80;7.20;;;;;;;;;;6136230;28;20227;-63
2022/01/15 15:11:14;;;;;;;16.63;6.00;;;;;;;;;;6124218;28;20262;-65
2022/01/15 15:14:35;;;;;;;20.77;6.17;;;;;;;;;;6127607;28;20227;-65
2022/01/15 15:17:56;;;;;;;10.63;5.03;;;;;;;;;;6129322;28;20235;-64
2022/01/15 15:21:18;;;;;;;17.00;6.37;;;;;;;;;;6130112;28;20259;-65
2022/01/15 15:24:40;;;;;;;13.07;6.20;;;;;;;;;;6129392;28;20236;-65
2022/01/15 15:28:00;;;;;;;15.77;5.40;;;;;;;;;;6137721;28;20238;-64
2022/01/15 15:31:21;;;;;;;13.73;6.13;;;;;;;;;;6139866;28;20341;-65
2022/01/15 15:34:41;;;;;;;12.93;5.97;;;;;;;;;;6137235;28;20708;-65
2022/01/15 15:38:01;;;;;;;15.97;7.50;;;;;;;;;;6134674;28;20234;-65
2022/01/15 15:41:23;;;;;;;17.87;6.03;;;;;;;;;;6135506;28;20342;-65
2022/01/15 15:44:44;;;;;;;12.20;6.40;;;;;;;;;;6133170;28;20234;-64
2022/01/15 15:48:04;;;;;;;13.13;6.00;;;;;;;;;;6067199;28;20239;-65
2022/01/15 15:51:25;;;;;;;10.87;7.07;;;;;;;;;;6127473;28;20575;-65
2022/01/15 15:54:46;;;;;;;13.70;7.67;;;;;;;;;;6132281;28;20224;-65
2022/01/15 15:58:08;;;;;;;17.53;7.83;;;;;;;;;;6134999;28;20239;-63
2022/01/15 16:01:29;;;;;;;14.70;7.03;;;;;;;;;;6121567;28;20266;-65
2022/01/15 16:04:49;;;;;;;13.27;7.27;;;;;;;;;;6112111;28;20265;-65
2022/01/15 16:08:10;;;;;;;13.97;6.70;;;;;;;;;;6133354;28;20235;-64
2022/01/15 16:11:31;;;;;;;14.37;7.60;;;;;;;;;;6135677;28;20553;-65
2022/01/15 16:14:53;;;;;;;12.30;7.73;;;;;;;;;;6134640;28;20502;-65
2022/01/15 16:18:14;;;;;;;17.50;9.63;;;;;;;;;;6129585;28;20231;-64
2022/01/15 16:21:35;;;;;;;12.30;7.47;;;;;;;;;;6130721;28;20240;-65
2022/01/15 16:24:55;;;;;;;17.73;7.40;;;;;;;;;;6135830;28;20240;-65
2022/01/15 16:28:16;;;;;;;14.53;7.50;;;;;;;;;;6129258;28;20235;-64
2022/01/15 16:31:38;;;;;;;20.07;8.03;;;;;;;;;;6141069;28;20327;-64
2022/01/15 16:34:59;;;;;;;16.30;6.93;;;;;;;;;;6145180;28;20927;-66
2022/01/15 16:38:19;;;;;;;18.10;8.13;;;;;;;;;;6139624;28;20231;-66
2022/01/15 16:41:40;;;;;;;12.33;7.07;;;;;;;;;;6138869;28;22003;-64
2022/01/15 16:45:00;;;;;;;15.80;7.40;;;;;;;;;;6140941;28;20291;-64
2022/01/15 16:48:22;;;;;;;10.57;7.00;;;;;;;;;;6131017;28;20226;-65
2022/01/15 16:51:43;;;;;;;13.93;7.57;;;;;;;;;;6128261;28;20609;-64
2022/01/15 16:55:04;;;;;;;14.50;8.13;;;;;;;;;;6117498;28;20648;-64
2022/01/15 16:58:26;;;;;;;12.23;6.87;;;;;;;;;;6107646;28;20235;-63
2022/01/15 17:01:47;;;;;;;12.00;6.77;;;;;;;;;;6084805;28;20236;-65
2022/01/15 17:05:10;;;;;;;19.90;7.67;;;;;;;;;;6089580;28;20239;-64
2022/01/15 17:08:30;;;;;;;16.07;6.97;;;;;;;;;;6093192;28;20230;-63
2022/01/15 17:11:51;;;;;;;10.43;6.00;;;;;;;;;;6088746;28;20504;-64
2022/01/15 17:15:12;;;;;;;12.43;6.03;;;;;;;;;;6084242;28;20227;-63
2022/01/15 17:18:33;;;;;;;16.00;5.90;;;;;;;;;;6092912;28;20232;-64
2022/01/15 17:21:55;;;;;;;12.53;5.93;;;;;;;;;;6091797;28;20258;-65
2022/01/15 17:25:15;;;;;;;14.80;9.47;;;;;;;;;;6105144;28;20232;-63
2022/01/15 17:28:36;;;;;;;17.50;7.20;;;;;;;;;;6119890;28;20318;-64
2022/01/15 17:31:56;;;;;;;18.07;9.27;;;;;;;;;;6122729;28;20224;-65
2022/01/15 17:35:17;;;;;;;15.47;7.80;;;;;;;;;;6129576;28;20231;-65
2022/01/15 17:38:39;;;;;;;18.43;9.13;;;;;;;;;;6136124;28;20322;-66
2022/01/15 17:42:01;;;;;;;13.87;8.17;;;;;;;;;;6139022;28;20235;-64
2022/01/15 17:45:22;;;;;;;23.87;17.43;;;;;;;;;;6132017;28;20235;-64
2022/01/15 17:48:42;;;;;;;56.50;38.37;;;;;;;;;;6126215;28;20282;-63
2022/01/15 17:52:03;;;;;;;186.83;173.87;;;;;;;;;;6118471;28;20263;-65
2022/01/15 17:55:24;;;;;;;39.20;32.47;;;;;;;;;;6103996;28;20339;-65
2022/01/15 17:58:45;;;;;;;675.47;554.80;;;;;;;;;;6132040;28;20282;-64
2022/01/15 18:02:06;;;;;;;175.07;132.47;;;;;;;;;;6133041;28;20247;-63
2022/01/15 18:05:26;;;;;;;34.77;21.83;;;;;;;;;;6122912;28;20235;-66
2022/01/15 18:08:47;;;;;;;15.27;8.17;;;;;;;;;;6125297;28;20232;-64
2022/01/15 18:12:10;;;;;;;15.30;8.80;;;;;;;;;;6132115;28;20247;-64
2022/01/15 18:15:31;;;;;;;15.37;8.23;;;;;;;;;;6129025;28;20235;-64
2022/01/15 18:18:51;;;;;;;15.00;9.20;;;;;;;;;;6124824;28;20758;-64
2022/01/15 18:22:12;;;;;;;15.77;7.83;;;;;;;;;;6131772;28;20613;-65
2022/01/15 18:25:33;;;;;;;14.53;9.13;;;;;;;;;;6133107;28;20505;-64
2022/01/15 18:28:55;;;;;;;16.97;8.40;;;;;;;;;;6129785;28;20235;-65
2022/01/15 18:32:15;;;;;;;13.53;8.33;;;;;;;;;;6124330;28;20239;-65
2022/01/15 18:35:36;;;;;;;15.37;8.83;;;;;;;;;;6134437;28;20622;-65
2022/01/15 18:38:57;;;;;;;14.33;6.23;;;;;;;;;;6135248;28;20235;-65
2022/01/15 18:42:17;;;;;;;28.40;9.13;;;;;;;;;;6133905;28;20243;-65
2022/01/15 18:45:39;;;;;;;16.13;9.03;;;;;;;;;;6122246;28;20518;-65
2022/01/15 18:49:00;;;;;;;18.30;9.27;;;;;;;;;;6133179;28;20611;-65
2022/01/15 18:52:21;;;;;;;16.67;9.37;;;;;;;;;;6126587;28;20363;-65
2022/01/15 18:55:42;;;;;;;14.93;8.60;;;;;;;;;;6134015;28;20239;-65
2022/01/15 18:59:03;;;;;;;16.00;8.10;;;;;;;;;;6128399;28;20264;-65
2022/01/15 19:02:25;;;;;;;16.10;9.97;;;;;;;;;;6118788;28;20235;-65
2022/01/15 19:05:45;;;;;;;15.93;8.60;;;;;;;;;;6125527;28;21358;-64
2022/01/15 19:09:06;;;;;;;22.33;10.17;;;;;;;;;;6133410;28;20256;-64
2022/01/15 19:12:27;;;;;;;17.87;10.17;;;;;;;;;;6117556;28;20222;-64
2022/01/15 19:15:48;;;;;;;14.63;9.07;;;;;;;;;;6131013;28;20614;-64
2022/01/15 19:19:10;;;;;;;12.77;8.10;;;;;;;;;;6120778;28;20228;-64
2022/01/15 19:22:30;;;;;;;20.77;9.13;;;;;;;;;;6135726;28;20266;-65
2022/01/15 19:25:51;;;;;;;14.07;8.00;;;;;;;;;;6114028;28;20227;-65
2022/01/15 19:29:11;;;;;;;13.93;7.73;;;;;;;;;;6132671;28;20235;-65
2022/01/15 19:32:32;;;;;;;13.00;8.13;;;;;;;;;;6129322;28;20230;-64
2022/01/15 19:35:54;;;;;;;16.90;8.77;;;;;;;;;;6141028;28;20231;-65
2022/01/15 19:39:14;;;;;;;17.00;10.17;;;;;;;;;;6135978;28;20276;-65
2022/01/15 19:42:35;;;;;;;17.10;9.23;;;;;;;;;;6145321;28;20285;-63
2022/01/15 19:45:56;;;;;;;15.33;8.10;;;;;;;;;;6152377;28;20594;-64
2022/01/15 19:49:16;;;;;;;15.83;10.40;;;;;;;;;;6145420;28;20832;-64
2022/01/15 19:52:38;;;;;;;13.97;10.10;;;;;;;;;;6135211;28;20222;-64
2022/01/15 19:55:58;;;;;;;18.03;10.63;;;;;;;;;;6131177;28;20223;-65
2022/01/15 19:59:19;;;;;;;19.57;11.60;;;;;;;;;;6136956;28;20231;-65
2022/01/15 20:02:39;;;;;;;20.37;9.90;;;;;;;;;;6140748;28;20259;-65
2022/01/15 20:06:00;;;;;;;14.67;10.63;;;;;;;;;;6134384;28;20637;-64